createdAt,value
2024-03-08T00:00:20.797Z,101485.47
2024-03-08T00:02:49.061Z,101485.22
2024-03-08T00:05:16.788Z,101481.91
2024-03-08T00:07:44.984Z,101486.81
2024-03-08T00:10:15.579Z,101480.09
2024-03-08T00:12:46.083Z,101482.78
2024-03-08T00:15:19.735Z,101484.09
2024-03-08T00:17:48.734Z,101479.47
2024-03-08T00:20:20.001Z,101477.44
2024-03-08T00:22:47.730Z,101476.28
2024-03-08T00:25:14.842Z,101477.78
2024-03-08T00:27:42.576Z,101474.09
2024-03-08T00:30:10.166Z,101474.72
2024-03-08T00:32:38.854Z,101469.91
2024-03-08T00:35:09.112Z,101469.66
2024-03-08T00:37:36.548Z,101471.13
2024-03-08T00:40:04.100Z,101476.19
2024-03-08T00:42:31.103Z,101472.72
2024-03-08T00:44:59.918Z,101478.31
2024-03-08T00:47:27.050Z,101474.72
2024-03-08T00:49:54.765Z,101475.41
2024-03-08T00:52:21.883Z,101483.84
2024-03-08T00:54:48.869Z,101481.81
2024-03-08T00:57:15.885Z,101484.88
2024-03-08T00:59:43.193Z,101487.63
2024-03-08T01:02:10.544Z,101485.22
2024-03-08T01:04:37.604Z,101478.53
2024-03-08T01:07:04.640Z,101490.97
2024-03-08T01:09:31.592Z,101490.81
2024-03-08T01:11:58.782Z,101488.22
2024-03-08T01:14:32.819Z,101490.59
2024-03-08T01:17:00.302Z,101491.13
2024-03-08T01:19:27.377Z,101495.31
2024-03-08T01:21:54.283Z,101498.69
2024-03-08T01:24:21.229Z,101487.97
2024-03-08T01:26:48.942Z,101491.47
2024-03-08T01:29:16.037Z,101488.91
2024-03-08T01:31:42.981Z,101484.31
2024-03-08T01:34:10.200Z,101494.00
2024-03-08T01:36:38.709Z,101484.69
2024-03-08T01:39:09.946Z,101482.09
2024-03-08T01:41:37.311Z,101479.13
2024-03-08T01:44:05.118Z,101485.41
2024-03-08T01:46:32.915Z,101486.34
2024-03-08T01:49:02.609Z,101480.72
2024-03-08T01:51:30.912Z,101481.38
2024-03-08T01:54:01.635Z,101481.31
2024-03-08T01:56:28.626Z,101485.59
2024-03-08T01:58:56.425Z,101474.38
2024-03-08T02:01:23.506Z,101475.78
2024-03-08T02:03:51.021Z,101478.16
2024-03-08T02:06:18.754Z,101473.31
2024-03-08T02:08:46.535Z,101479.25
2024-03-08T02:11:14.741Z,101482.97
2024-03-08T02:13:41.732Z,101478.47
2024-03-08T02:16:10.031Z,101479.00
2024-03-08T02:18:38.607Z,101478.50
2024-03-08T02:21:07.534Z,101477.31
2024-03-08T02:23:35.134Z,101486.03
2024-03-08T02:26:02.514Z,101484.56
2024-03-08T02:28:32.365Z,101482.09
2024-03-08T02:30:59.467Z,101483.19
2024-03-08T02:33:28.589Z,101485.03
2024-03-08T02:35:56.994Z,101479.09
2024-03-08T02:38:26.375Z,101480.47
2024-03-08T02:40:55.324Z,101484.81
2024-03-08T02:43:24.169Z,101481.75
2024-03-08T02:45:51.541Z,101490.94
2024-03-08T02:48:18.717Z,101488.16
2024-03-08T02:50:46.848Z,101486.09
2024-03-08T02:53:15.128Z,101485.13
2024-03-08T02:55:43.293Z,101487.31
2024-03-08T02:58:11.888Z,101486.03
2024-03-08T03:00:42.982Z,101487.50
2024-03-08T03:03:10.432Z,101490.69
2024-03-08T03:05:37.814Z,101489.13
2024-03-08T03:08:11.065Z,101495.22
2024-03-08T03:10:38.589Z,101490.31
2024-03-08T03:13:10.078Z,101491.22
2024-03-08T03:15:38.227Z,101492.72
2024-03-08T03:18:07.168Z,101487.88
2024-03-08T03:20:34.654Z,101487.78
2024-03-08T03:23:04.972Z,101494.38
2024-03-08T03:25:36.787Z,101488.28
2024-03-08T03:28:04.475Z,101481.50
2024-03-08T03:30:34.934Z,101489.31
2024-03-08T03:33:02.672Z,101492.63
2024-03-08T03:35:30.882Z,101497.56
2024-03-08T03:38:11.134Z,101487.38
2024-03-08T03:40:40.683Z,101481.97
2024-03-08T03:43:07.902Z,101479.72
2024-03-08T03:45:38.373Z,101475.88
2024-03-08T03:48:08.578Z,101476.09
2024-03-08T03:50:36.718Z,101482.81
2024-03-08T03:53:05.198Z,101474.63
2024-03-08T03:55:32.111Z,101478.13
2024-03-08T03:58:00.658Z,101479.00
2024-03-08T04:00:28.727Z,101476.13
2024-03-08T04:02:56.461Z,101470.72
2024-03-08T04:05:23.564Z,101471.25
2024-03-08T04:07:50.512Z,101471.25
2024-03-08T04:10:17.492Z,101470.94
2024-03-08T04:12:44.496Z,101477.22
2024-03-08T04:15:12.774Z,101478.56
2024-03-08T04:17:40.281Z,101483.81
2024-03-08T04:20:16.461Z,101476.16
2024-03-08T04:22:45.998Z,101483.66
2024-03-08T04:25:13.143Z,101484.00
2024-03-08T04:27:40.177Z,101487.59
2024-03-08T04:30:09.586Z,101486.72
2024-03-08T04:32:37.008Z,101485.91
2024-03-08T04:35:05.019Z,101486.81
2024-03-08T04:37:32.545Z,101490.47
2024-03-08T04:39:59.920Z,101492.75
2024-03-08T04:42:31.508Z,101493.16
2024-03-08T04:44:59.378Z,101498.22
2024-03-08T04:47:26.962Z,101492.03
2024-03-08T04:49:54.620Z,101492.16
2024-03-08T04:52:21.687Z,101496.06
2024-03-08T04:54:48.607Z,101494.47
2024-03-08T04:57:15.941Z,101496.75
2024-03-08T04:59:42.977Z,101498.44
2024-03-08T05:02:09.901Z,101497.91
2024-03-08T05:04:37.327Z,101499.38
2024-03-08T05:07:05.324Z,101502.34
2024-03-08T05:09:33.595Z,101500.66
2024-03-08T05:12:00.795Z,101508.44
2024-03-08T05:14:27.988Z,101505.94
2024-03-08T05:16:54.967Z,101517.00
2024-03-08T05:19:22.525Z,101515.41
2024-03-08T05:21:51.369Z,101513.34
2024-03-08T05:24:19.679Z,101513.22
2024-03-08T05:26:48.084Z,101515.22
2024-03-08T05:29:16.210Z,101523.09
2024-03-08T05:31:50.316Z,101529.94
2024-03-08T05:34:18.475Z,101528.06
2024-03-08T05:36:46.326Z,101532.56
2024-03-08T05:39:17.416Z,101538.19
2024-03-08T05:41:45.463Z,101534.44
2024-03-08T05:44:12.724Z,101545.19
2024-03-08T05:46:39.787Z,101532.25
2024-03-08T05:49:08.608Z,101537.00
2024-03-08T05:51:37.047Z,101542.94
2024-03-08T05:54:12.182Z,101549.31
2024-03-08T05:56:43.754Z,101545.91
2024-03-08T05:59:11.624Z,101553.75
2024-03-08T06:01:39.408Z,101553.88
2024-03-08T06:04:06.330Z,101556.16
2024-03-08T06:06:33.494Z,101550.38
2024-03-08T06:09:00.988Z,101557.81
2024-03-08T06:11:29.956Z,101548.56
2024-03-08T06:14:01.637Z,101554.31
2024-03-08T06:16:31.549Z,101559.81
2024-03-08T06:18:59.202Z,101556.66
2024-03-08T06:21:29.227Z,101558.53
2024-03-08T06:23:56.705Z,101556.72
2024-03-08T06:26:23.689Z,101555.16
2024-03-08T06:28:50.726Z,101558.19
2024-03-08T06:31:18.083Z,101562.25
2024-03-08T06:33:45.161Z,101573.78
2024-03-08T06:36:13.535Z,101566.25
2024-03-08T06:38:44.173Z,101568.09
2024-03-08T06:41:16.753Z,101568.09
2024-03-08T06:43:48.355Z,101567.44
2024-03-08T06:46:18.752Z,101568.72
2024-03-08T06:48:47.729Z,101568.50
2024-03-08T06:51:16.179Z,101565.13
2024-03-08T06:53:43.327Z,101567.09
2024-03-08T06:56:10.380Z,101562.38
2024-03-08T06:58:37.470Z,101572.56
2024-03-08T07:01:09.351Z,101561.47
2024-03-08T07:03:36.886Z,101567.25
2024-03-08T07:06:04.926Z,101567.72
2024-03-08T07:08:32.132Z,101575.75
2024-03-08T07:11:00.339Z,101569.81
2024-03-08T07:13:30.182Z,101570.84
2024-03-08T07:15:57.548Z,101569.72
2024-03-08T07:18:24.792Z,101572.78
2024-03-08T07:20:52.310Z,101571.34
2024-03-08T07:23:37.890Z,101571.38
2024-03-08T07:26:05.307Z,101573.72
2024-03-08T07:28:32.356Z,101569.38
2024-03-08T07:31:23.415Z,101568.28
2024-03-08T07:33:52.147Z,101574.09
2024-03-08T07:36:19.274Z,101576.13
2024-03-08T07:38:48.470Z,101573.00
2024-03-08T07:41:16.926Z,101574.63
2024-03-08T07:43:44.024Z,101575.50
2024-03-08T07:46:14.724Z,101583.81
2024-03-08T07:48:41.996Z,101579.63
2024-03-08T07:51:11.063Z,101584.38
2024-03-08T07:53:39.553Z,101576.78
2024-03-08T07:56:06.950Z,101579.91
2024-03-08T07:58:35.747Z,101584.31
2024-03-08T08:01:03.655Z,101587.44
2024-03-08T08:03:30.794Z,101580.81
2024-03-08T08:05:57.763Z,101583.22
2024-03-08T08:08:25.741Z,101584.41
2024-03-08T08:10:52.855Z,101580.09
2024-03-08T08:13:19.862Z,101586.31
2024-03-08T08:15:47.277Z,101589.47
2024-03-08T08:18:15.574Z,101592.91
2024-03-08T08:20:42.605Z,101593.69
2024-03-08T08:23:10.346Z,101594.16
2024-03-08T08:25:37.316Z,101601.66
2024-03-08T08:28:05.915Z,101597.06
2024-03-08T08:30:34.727Z,101601.00
2024-03-08T08:33:02.344Z,101603.78
2024-03-08T08:35:30.316Z,101601.50
2024-03-08T08:37:57.456Z,101604.19
2024-03-08T08:40:25.655Z,101595.59
2024-03-08T08:42:58.861Z,101602.69
2024-03-08T08:45:27.101Z,101597.34
2024-03-08T08:47:56.221Z,101592.25
2024-03-08T08:50:28.128Z,101598.56
2024-03-08T08:52:55.047Z,101592.69
2024-03-08T08:55:22.999Z,101600.56
2024-03-08T08:57:50.619Z,101582.16
2024-03-08T09:00:17.941Z,101585.31
2024-03-08T09:02:45.036Z,101591.97
2024-03-08T09:05:13.328Z,101590.41
2024-03-08T09:07:40.689Z,101591.59
2024-03-08T09:12:41.219Z,101588.84
2024-03-08T09:15:13.224Z,101597.47
2024-03-08T09:17:45.905Z,101588.06
2024-03-08T09:20:16.713Z,101595.47
2024-03-08T09:22:47.810Z,101592.34
2024-03-08T09:25:15.082Z,101589.22
2024-03-08T09:27:42.621Z,101591.56
2024-03-08T09:30:10.071Z,101598.25
2024-03-08T09:32:38.713Z,101586.09
2024-03-08T09:35:09.110Z,101590.00
2024-03-08T09:37:36.785Z,101593.13
2024-03-08T09:40:06.300Z,101599.41
2024-03-08T09:42:33.326Z,101601.00
2024-03-08T09:45:00.469Z,101597.06
2024-03-08T09:47:35.138Z,101593.91
2024-03-08T09:50:02.905Z,101593.13
2024-03-08T09:52:32.414Z,101600.22
2024-03-08T09:54:59.550Z,101607.25
2024-03-08T09:57:27.331Z,101599.44
2024-03-08T09:59:54.370Z,101596.28
2024-03-08T10:02:22.732Z,101607.63
2024-03-08T10:04:50.169Z,101609.22
2024-03-08T10:07:17.372Z,101610.00
2024-03-08T10:09:51.063Z,101603.38
2024-03-08T10:12:18.845Z,101612.75
2024-03-08T10:14:46.057Z,101619.81
2024-03-08T10:17:13.126Z,101615.13
2024-03-08T10:19:40.598Z,101617.06
2024-03-08T10:22:08.246Z,101615.50
2024-03-08T10:24:37.452Z,101607.25
2024-03-08T10:27:06.104Z,101608.41
2024-03-08T10:29:33.901Z,101609.59
2024-03-08T10:32:01.147Z,101611.19
2024-03-08T10:34:28.380Z,101604.88
2024-03-08T10:37:04.147Z,101611.16
2024-03-08T10:39:36.904Z,101615.09
2024-03-08T10:42:06.154Z,101611.56
2024-03-08T10:44:52.191Z,101610.38
2024-03-08T10:47:23.400Z,101608.00
2024-03-08T10:50:05.811Z,101603.69
2024-03-08T10:52:33.534Z,101604.88
2024-03-08T10:55:01.361Z,101603.66
2024-03-08T10:57:28.791Z,101602.88
2024-03-08T10:59:59.431Z,101596.53
2024-03-08T11:02:28.735Z,101596.91
2024-03-08T11:04:58.326Z,101594.91
2024-03-08T11:07:29.135Z,101595.75
2024-03-08T11:09:57.931Z,101596.94
2024-03-08T11:12:30.920Z,101592.97
2024-03-08T11:15:02.519Z,101590.22
2024-03-08T11:17:29.519Z,101589.13
2024-03-08T11:19:58.058Z,101581.66
2024-03-08T11:22:30.951Z,101590.69
2024-03-08T11:25:03.750Z,101582.06
2024-03-08T11:27:35.303Z,101585.22
2024-03-08T11:30:25.654Z,101571.91
2024-03-08T11:32:54.331Z,101572.28
2024-03-08T11:35:24.813Z,101572.75
2024-03-08T11:37:52.511Z,101565.69
2024-03-08T11:40:21.603Z,101561.75
2024-03-08T11:42:53.269Z,101567.25
2024-03-08T11:45:22.923Z,101565.28
2024-03-08T11:47:51.014Z,101559.34
2024-03-08T11:50:20.611Z,101564.88
2024-03-08T11:52:48.263Z,101561.72
2024-03-08T11:55:15.688Z,101560.09
2024-03-08T11:57:43.947Z,101556.16
2024-03-08T12:00:27.790Z,101557.28
2024-03-08T12:03:08.473Z,101553.66
2024-03-08T12:05:35.825Z,101554.06
2024-03-08T12:08:04.171Z,101540.75
2024-03-08T12:10:31.420Z,101545.16
2024-03-08T12:13:01.352Z,101546.69
2024-03-08T12:15:29.967Z,101545.91
2024-03-08T12:17:57.845Z,101540.84
2024-03-08T12:20:35.707Z,101540.88
2024-03-08T12:23:03.828Z,101536.19
2024-03-08T12:25:37.939Z,101536.22
2024-03-08T12:28:16.293Z,101531.50
2024-03-08T12:30:52.461Z,101536.97
2024-03-08T12:33:19.521Z,101537.41
2024-03-08T12:35:57.480Z,101527.97
2024-03-08T12:38:28.018Z,101526.78
2024-03-08T12:41:02.689Z,101527.97
2024-03-08T12:43:33.546Z,101526.78
2024-03-08T12:46:00.949Z,101530.31
2024-03-08T12:48:28.000Z,101527.13
2024-03-08T12:50:56.336Z,101522.41
2024-03-08T12:53:24.788Z,101519.72
2024-03-08T12:55:52.173Z,101518.53
2024-03-08T12:58:21.675Z,101518.19
2024-03-08T13:00:54.095Z,101516.22
2024-03-08T13:03:22.352Z,101521.66
2024-03-08T13:05:50.097Z,101512.25
2024-03-08T13:08:21.961Z,101515.47
2024-03-08T13:10:49.205Z,101520.53
2024-03-08T13:13:19.006Z,101522.06
2024-03-08T13:15:46.751Z,101522.47
2024-03-08T13:18:14.144Z,101521.69
2024-03-08T13:20:46.876Z,101520.56
2024-03-08T13:23:15.753Z,101524.50
2024-03-08T13:25:42.973Z,101514.72
2024-03-08T13:28:10.519Z,101515.88
2024-03-08T13:30:37.698Z,101518.59
2024-03-08T13:33:08.865Z,101504.47
2024-03-08T13:35:36.265Z,101509.19
2024-03-08T13:38:06.254Z,101509.22
2024-03-08T13:40:33.382Z,101512.34
2024-03-08T13:43:02.709Z,101505.31
2024-03-08T13:45:29.838Z,101502.97
2024-03-08T13:47:57.745Z,101505.69
2024-03-08T13:50:25.096Z,101504.91
2024-03-08T13:52:56.595Z,101506.09
2024-03-08T13:55:27.286Z,101495.53
2024-03-08T13:57:54.770Z,101496.66
2024-03-08T14:00:28.738Z,101495.50
2024-03-08T14:02:55.685Z,101495.50
2024-03-08T14:05:22.866Z,101492.41
2024-03-08T14:07:51.765Z,101492.78
2024-03-08T14:10:24.345Z,101494.34
2024-03-08T14:12:52.862Z,101490.41
2024-03-08T14:15:19.865Z,101489.63
2024-03-08T14:17:48.572Z,101485.72
2024-03-08T14:20:16.080Z,101484.94
2024-03-08T14:22:44.763Z,101493.56
2024-03-08T14:25:19.133Z,101488.88
2024-03-08T14:27:47.850Z,101485.72
2024-03-08T14:30:15.093Z,101489.28
2024-03-08T14:32:43.201Z,101484.56
2024-03-08T14:35:12.698Z,101482.59
2024-03-08T14:37:39.977Z,101481.06
2024-03-08T14:40:10.080Z,101483.78
2024-03-08T14:42:37.116Z,101485.34
2024-03-08T14:45:05.322Z,101484.16
2024-03-08T14:47:32.527Z,101485.72
2024-03-08T14:49:59.488Z,101485.34
2024-03-08T14:52:29.372Z,101484.16
2024-03-08T14:54:57.445Z,101485.75
2024-03-08T14:57:24.566Z,101481.06
2024-03-08T14:59:51.733Z,101483.78
2024-03-08T15:02:20.758Z,101477.91
2024-03-08T15:04:58.916Z,101489.28
2024-03-08T15:07:32.393Z,101482.59
2024-03-08T15:09:59.505Z,101482.59
2024-03-08T15:12:27.694Z,101484.97
2024-03-08T15:14:56.710Z,101483.00
2024-03-08T15:17:24.430Z,101483.38
2024-03-08T15:19:51.978Z,101485.75
2024-03-08T15:22:19.405Z,101483.00
2024-03-08T15:24:46.677Z,101476.38
2024-03-08T15:27:14.403Z,101493.63
2024-03-08T15:29:41.323Z,101487.31
2024-03-08T15:32:11.360Z,101494.00
2024-03-08T15:34:40.233Z,101495.16
2024-03-08T15:37:08.353Z,101492.03
2024-03-08T15:39:35.492Z,101493.19
2024-03-08T15:42:02.550Z,101497.50
2024-03-08T15:44:30.138Z,101490.41
2024-03-08T15:46:57.596Z,101495.09
2024-03-08T15:49:28.142Z,101490.34
2024-03-08T15:51:55.295Z,101491.53
2024-03-08T15:54:22.873Z,101496.22
2024-03-08T15:56:50.690Z,101500.53
2024-03-08T15:59:18.163Z,101498.88
2024-03-08T16:01:53.206Z,101490.66
2024-03-08T16:04:22.280Z,101498.81
2024-03-08T16:06:49.355Z,101493.31
2024-03-08T16:09:17.357Z,101498.69
2024-03-08T16:11:46.005Z,101493.56
2024-03-08T16:14:13.143Z,101495.38
2024-03-08T16:16:40.741Z,101489.78
2024-03-08T16:19:09.141Z,101495.00
2024-03-08T16:21:37.455Z,101490.97
2024-03-08T16:24:04.967Z,101494.03
2024-03-08T16:26:36.343Z,101487.00
2024-03-08T16:29:05.585Z,101500.09
2024-03-08T16:31:32.672Z,101492.69
2024-03-08T16:33:59.650Z,101491.25
2024-03-08T16:36:28.272Z,101496.56
2024-03-08T16:38:55.501Z,101496.94
2024-03-08T16:41:22.941Z,101498.16
2024-03-08T16:43:50.674Z,101506.63
2024-03-08T16:46:17.978Z,101512.66
2024-03-08T16:48:45.200Z,101507.69
2024-03-08T16:51:12.891Z,101511.88
2024-03-08T16:53:44.117Z,101512.25
2024-03-08T16:56:14.352Z,101514.09
2024-03-08T16:58:44.893Z,101522.38
2024-03-08T17:01:12.536Z,101521.84
2024-03-08T17:03:47.818Z,101527.44
2024-03-08T17:06:24.673Z,101532.81
2024-03-08T17:08:53.355Z,101528.44
2024-03-08T17:11:22.162Z,101534.44
2024-03-08T17:13:50.520Z,101533.91
2024-03-08T17:16:17.746Z,101535.09
2024-03-08T17:18:45.676Z,101526.19
2024-03-08T17:21:15.021Z,101526.34
2024-03-08T17:23:42.053Z,101524.84
2024-03-08T17:26:09.768Z,101516.97
2024-03-08T17:28:39.693Z,101517.69
2024-03-08T17:31:08.978Z,101519.84
2024-03-08T17:33:36.869Z,101521.53
2024-03-08T17:36:08.443Z,101527.81
2024-03-08T17:38:35.624Z,101532.81
2024-03-08T17:41:02.699Z,101528.91
2024-03-08T17:43:29.796Z,101525.81
2024-03-08T17:45:57.005Z,101523.06
2024-03-08T17:48:24.115Z,101528.84
2024-03-08T17:50:51.362Z,101529.56
2024-03-08T17:53:20.360Z,101532.19
2024-03-08T17:55:47.629Z,101519.88
2024-03-08T17:58:16.865Z,101525.66
2024-03-08T18:00:45.443Z,101526.75
2024-03-08T18:03:14.472Z,101526.88
2024-03-08T18:05:45.208Z,101533.28
2024-03-08T18:08:13.007Z,101537.53
2024-03-08T18:10:43.047Z,101538.09
2024-03-08T18:13:15.352Z,101538.53
2024-03-08T18:15:43.524Z,101539.44
2024-03-08T18:18:13.185Z,101536.38
2024-03-08T18:20:49.462Z,101539.19
2024-03-08T18:23:17.586Z,101536.97
2024-03-08T18:25:48.464Z,101539.53
2024-03-08T18:28:19.002Z,101534.16
2024-03-08T18:30:50.342Z,101540.03
2024-03-08T18:33:17.606Z,101541.25
2024-03-08T18:35:45.640Z,101535.09
2024-03-08T18:38:13.423Z,101535.16
2024-03-08T18:40:46.793Z,101533.09
2024-03-08T18:43:14.646Z,101539.09
2024-03-08T18:45:43.672Z,101537.94
2024-03-08T18:48:13.262Z,101535.63
2024-03-08T18:50:40.929Z,101532.91
2024-03-08T18:53:09.351Z,101542.69
2024-03-08T18:55:36.733Z,101535.63
2024-03-08T18:58:04.233Z,101548.19
2024-03-08T19:00:36.231Z,101543.00
2024-03-08T19:03:06.695Z,101547.69
2024-03-08T19:05:34.121Z,101542.16
2024-03-08T19:08:09.833Z,101542.16
2024-03-08T19:10:39.809Z,101539.22
2024-03-08T19:13:07.586Z,101527.91
2024-03-08T19:15:35.401Z,101535.91
2024-03-08T19:18:06.793Z,101534.94
2024-03-08T19:20:37.328Z,101537.22
2024-03-08T19:23:07.540Z,101531.78
2024-03-08T19:25:36.193Z,101529.44
2024-03-08T19:28:06.742Z,101521.44
2024-03-08T19:30:37.857Z,101528.78
2024-03-08T19:33:14.278Z,101527.34
2024-03-08T19:35:42.545Z,101533.59
2024-03-08T19:38:12.848Z,101524.44
2024-03-08T19:40:43.241Z,101525.91
2024-03-08T19:43:16.896Z,101527.91
2024-03-08T19:45:45.408Z,101524.81
2024-03-08T19:48:18.223Z,101534.94
2024-03-08T19:50:47.279Z,101524.63
2024-03-08T19:53:18.436Z,101534.44
2024-03-08T19:55:54.920Z,101533.00
2024-03-08T19:58:23.646Z,101529.91
2024-03-08T20:00:51.255Z,101531.50
2024-03-08T20:03:24.197Z,101535.09
2024-03-08T20:05:55.257Z,101544.41
2024-03-08T20:08:24.448Z,101547.75
2024-03-08T20:10:52.388Z,101538.06
2024-03-08T20:13:20.706Z,101540.44
2024-03-08T20:15:54.916Z,101542.03
2024-03-08T20:18:28.011Z,101546.56
2024-03-08T20:20:58.853Z,101551.97
2024-03-08T20:23:25.909Z,101553.84
2024-03-08T20:25:53.529Z,101564.38
2024-03-08T20:28:20.806Z,101560.34
2024-03-08T20:30:48.516Z,101557.31
2024-03-08T20:33:17.628Z,101565.59
2024-03-08T20:35:51.695Z,101565.28
2024-03-08T20:38:23.077Z,101568.72
2024-03-08T20:40:52.208Z,101571.22
2024-03-08T20:43:22.300Z,101567.97
2024-03-08T20:45:50.885Z,101556.19
2024-03-08T20:48:18.332Z,101553.97
2024-03-08T20:50:45.442Z,101553.56
2024-03-08T20:53:13.526Z,101558.69
2024-03-08T20:55:41.329Z,101556.72
2024-03-08T20:58:08.682Z,101554.91
2024-03-08T21:00:35.753Z,101560.56
2024-03-08T21:03:05.797Z,101548.94
2024-03-08T21:05:33.814Z,101559.72
2024-03-08T21:08:01.377Z,101560.63
2024-03-08T21:10:32.096Z,101562.72
2024-03-08T21:12:59.426Z,101562.94
2024-03-08T21:15:29.128Z,101565.47
2024-03-08T21:17:56.164Z,101565.28
2024-03-08T21:20:23.552Z,101563.66
2024-03-08T21:22:51.000Z,101570.16
2024-03-08T21:25:23.117Z,101567.31
2024-03-08T21:27:50.188Z,101566.72
2024-03-08T21:30:26.257Z,101579.44
2024-03-08T21:32:54.537Z,101585.44
2024-03-08T21:35:21.496Z,101585.91
2024-03-08T21:37:52.371Z,101575.63
2024-03-08T21:40:23.109Z,101577.56
2024-03-08T21:42:51.632Z,101576.31
2024-03-08T21:45:18.530Z,101575.47
2024-03-08T21:47:46.264Z,101570.16
2024-03-08T21:50:16.847Z,101570.31
2024-03-08T21:52:45.072Z,101566.00
2024-03-08T21:55:13.221Z,101558.47
2024-03-08T21:57:40.185Z,101563.59
2024-03-08T22:00:14.636Z,101557.19
2024-03-08T22:02:43.094Z,101566.28
2024-03-08T22:05:11.754Z,101564.66
2024-03-08T22:07:39.113Z,101558.16
2024-03-08T22:10:06.645Z,101560.50
2024-03-08T22:12:35.427Z,101548.91
2024-03-08T22:15:03.049Z,101559.03
2024-03-08T22:17:31.956Z,101555.00
2024-03-08T22:20:05.202Z,101559.91
2024-03-08T22:22:32.993Z,101550.59
2024-03-08T22:25:00.143Z,101543.97
2024-03-08T22:27:27.175Z,101545.56
2024-03-08T22:29:56.703Z,101545.88
2024-03-08T22:32:24.058Z,101538.91
2024-03-08T22:34:51.864Z,101540.41
2024-03-08T22:37:19.031Z,101541.66
2024-03-08T22:39:45.964Z,101546.66
2024-03-08T22:42:13.107Z,101546.72
2024-03-08T22:44:40.140Z,101540.63
2024-03-08T22:47:08.824Z,101546.50
2024-03-08T22:49:35.897Z,101553.47
2024-03-08T22:52:04.226Z,101544.13
2024-03-08T22:54:31.293Z,101550.44
2024-03-08T22:57:09.798Z,101551.19
2024-03-08T22:59:36.980Z,101552.03
2024-03-08T23:02:04.702Z,101555.16
2024-03-08T23:04:31.992Z,101553.22
2024-03-08T23:06:58.933Z,101545.66
2024-03-08T23:09:25.867Z,101540.41
2024-03-08T23:11:52.755Z,101545.09
2024-03-08T23:14:19.789Z,101545.22
2024-03-08T23:16:48.397Z,101545.72
2024-03-08T23:19:15.437Z,101544.91
2024-03-08T23:21:42.448Z,101542.31
2024-03-08T23:24:09.612Z,101550.06
2024-03-08T23:26:36.841Z,101553.25
2024-03-08T23:29:04.813Z,101552.56
2024-03-08T23:31:34.747Z,101565.69
2024-03-08T23:34:01.888Z,101556.66
2024-03-08T23:36:29.725Z,101564.13
2024-03-08T23:38:56.865Z,101554.63
2024-03-08T23:41:25.445Z,101556.97
2024-03-08T23:43:53.448Z,101568.59
2024-03-08T23:46:22.873Z,101565.03
2024-03-08T23:48:49.859Z,101564.84
2024-03-08T23:51:17.499Z,101568.00
2024-03-08T23:53:44.383Z,101564.13
2024-03-08T23:56:13.107Z,101557.69
2024-03-08T23:58:40.804Z,101552.13
